• Join FlightAware (Why Join?)
  • Login
  • US Flag 
02:24PM EDT


 

Airport Tracker/Info


-or-


 

Live Flight TrackerFlight Track Log ✈ N588AC ✈ 02-May-2013 ✈ KMTN - KBCB

Flight Track Log - Related Links

Times and Time Zones

All times are in EDT time to prevent confusion due to time zone crossing. See the N588AC flight status page for this flight to view local times or setup timezone preferences in your user account.

Time Position Orientation Groundspeed Altitude Reporting Facility
EDT Latitude Longitude Course Direction KTS MPH feet Rate Location/Type
03:51PM 39.2833 -76.4333 243° Southwest 237 273 1,900  Level Potomac TRACON
03:52PM 39.2833 -76.5333 270° West 266 306 3,100 1,620 Climbing Potomac TRACON
03:53PM 39.3000 -76.6167 285° West 272 313 5,200 2,160 Climbing Potomac TRACON
03:54PM 39.3000 -76.7333 270° West 290 334 7,500 1,620 Climbing Potomac TRACON
03:55PM 39.3167 -76.8333 282° West 294 338 8,500 1,440 Climbing Potomac TRACON
03:56PM 39.3167 -76.9500 270° West 307 353 10,500 1,680 Climbing Potomac TRACON
03:57PM 39.0886 -76.7784 243° Southwest  Level FlightAware Approximate
03:57PM 39.3000 -77.0500 258° West 318 366 12,000  Level Potomac TRACON
03:58PM 39.2333 -77.1333 224° Southwest 323 372 13,300 1,320 Climbing Potomac TRACON
03:59PM 39.1667 -77.2167 224° Southwest 330 380 14,700 1,380 Climbing Potomac TRACON
04:00PM 39.1000 -77.2833 218° Southwest 323 372 16,200 1,440 Climbing Potomac TRACON
04:01PM 39.0167 -77.3333 205° Southwest 317 365 17,700 1,260 Climbing Potomac TRACON
04:03PM 38.9333 -77.4000 212° Southwest 330 380 18,800 1,080 Climbing Potomac TRACON
04:03PM 38.8667 -77.4500 210° Southwest 334 384 19,800 600 Climbing Potomac TRACON
04:05PM 38.7667 -77.5167 207° Southwest 360 414 20,100 60 Climbing Potomac TRACON
04:06PM 38.6378 -77.6275 214° Southwest 378 435 20,000  Descending Washington Center
04:07PM 38.5553 -77.6944 212° Southwest 373 429 20,100  Climbing Washington Center
04:08PM 38.4786 -77.7744 219° Southwest 362 417 20,000 -60 Descending Washington Center
04:09PM 38.4267 -77.8817 238° Southwest 346 398 20,000  Level Washington Center
04:10PM 38.3703 -77.9883 236° Southwest 359 413 20,000  Level Washington Center
04:11PM 38.3161 -78.0925 236° Southwest 364 419 20,000  Level Washington Center
04:12PM 38.2617 -78.1992 237° Southwest 364 419 20,000  Level Washington Center
04:13PM 38.2072 -78.3003 236° Southwest 364 419 20,000  Level Washington Center
04:14PM 38.1528 -78.4039 236° Southwest 364 419 20,000  Level Washington Center
04:15PM 38.1064 -78.5103 241° Southwest 364 419 20,000  Level Washington Center
04:16PM 38.0747 -78.6119 248° West 348 400 20,000 -420 Level Washington Center
04:17PM 38.0319 -78.7394 247° West 354 407 19,200 -1,020 Descending Washington Center
04:18PM 37.9911 -78.8564 246° West 360 414 18,000 -600 Descending Washington Center
04:19PM 37.9506 -78.9731 246° West 360 414 18,000 -120 Level Washington Center
04:20PM 37.9117 -79.0872 247° West 360 414 17,800 -420 Descending Washington Center
04:21PM 37.8650 -79.1850 239° Southwest 360 414 17,200 -840 Descending Washington Center
04:22PM 37.8097 -79.2900 236° Southwest 360 414 16,100 -1,020 Descending Washington Center
04:23PM 37.7567 -79.3872 235° Southwest 355 409 15,200 -1,020 Descending Washington Center
04:24PM 37.7081 -79.4717 234° Southwest 319 367 14,100 -1,200 Descending Washington Center
04:25PM 37.6589 -79.5686 237° Southwest 307 353 12,900 -1,140 Descending Washington Center
04:26PM 37.6189 -79.6453 237° Southwest 302 348 11,900 -1,080 Descending Washington Center
04:27PM 37.5656 -79.7394 234° Southwest 297 342 10,800 -960 Descending Washington Center
04:28PM 37.5094 -79.7914 216° Southwest 291 335 10,000 -420 Descending Washington Center
04:29PM 37.4422 -79.8633 220° Southwest 290 334 10,000  Level Washington Center
04:30PM 37.3797 -79.9228 217° Southwest 290 334 10,000 -540 Level Washington Center
04:31PM 37.3189 -79.9844 219° Southwest 290 334 9,000 -1,320 Descending Washington Center
04:32PM 37.2564 -80.0408 216° Southwest 290 334 7,400 -1,680 Descending Washington Center
04:34PM 37.2353 -80.2007 233° Southwest  Level Estimated